sensor_id;sensor_type;location;lat;lon;timestamp;P1;durP1;ratioP1;P2;durP2;ratioP2
20090;SDS011;10205;49.678;6.560;2023-01-16T00:01:55;2.87;;;1.40;;
20090;SDS011;10205;49.678;6.560;2023-01-16T00:04:24;2.63;;;1.20;;
20090;SDS011;10205;49.678;6.560;2023-01-16T00:06:52;2.83;;;1.47;;
20090;SDS011;10205;49.678;6.560;2023-01-16T00:09:22;11.27;;;2.17;;
20090;SDS011;10205;49.678;6.560;2023-01-16T00:11:49;3.60;;;1.77;;
20090;SDS011;10205;49.678;6.560;2023-01-16T00:14:16;3.17;;;1.67;;
20090;SDS011;10205;49.678;6.560;2023-01-16T00:16:43;2.30;;;1.47;;
20090;SDS011;10205;49.678;6.560;2023-01-16T00:19:10;1.80;;;1.40;;
20090;SDS011;10205;49.678;6.560;2023-01-16T00:21:37;4.33;;;1.50;;
20090;SDS011;10205;49.678;6.560;2023-01-16T00:24:05;2.50;;;1.47;;
20090;SDS011;10205;49.678;6.560;2023-01-16T00:26:34;2.07;;;1.50;;
20090;SDS011;10205;49.678;6.560;2023-01-16T00:29:01;1.60;;;1.50;;
20090;SDS011;10205;49.678;6.560;2023-01-16T00:31:30;1.80;;;1.43;;
20090;SDS011;10205;49.678;6.560;2023-01-16T00:33:57;2.80;;;1.50;;
20090;SDS011;10205;49.678;6.560;2023-01-16T00:36:25;2.90;;;1.50;;
20090;SDS011;10205;49.678;6.560;2023-01-16T00:38:55;4.53;;;1.40;;
20090;SDS011;10205;49.678;6.560;2023-01-16T00:41:26;4.80;;;1.97;;
20090;SDS011;10205;49.678;6.560;2023-01-16T00:43:54;2.40;;;1.30;;
20090;SDS011;10205;49.678;6.560;2023-01-16T00:46:24;2.07;;;1.67;;
20090;SDS011;10205;49.678;6.560;2023-01-16T00:48:51;2.40;;;1.50;;
20090;SDS011;10205;49.678;6.560;2023-01-16T00:51:18;2.00;;;1.50;;
20090;SDS011;10205;49.678;6.560;2023-01-16T00:53:48;1.60;;;1.47;;
20090;SDS011;10205;49.678;6.560;2023-01-16T00:56:15;2.10;;;1.30;;
20090;SDS011;10205;49.678;6.560;2023-01-16T00:58:42;2.57;;;1.30;;
20090;SDS011;10205;49.678;6.560;2023-01-16T01:01:11;2.87;;;1.43;;
20090;SDS011;10205;49.678;6.560;2023-01-16T01:03:39;2.17;;;1.47;;
20090;SDS011;10205;49.678;6.560;2023-01-16T01:06:06;1.50;;;1.40;;
20090;SDS011;10205;49.678;6.560;2023-01-16T01:08:36;2.57;;;1.30;;
20090;SDS011;10205;49.678;6.560;2023-01-16T01:11:07;2.57;;;1.40;;
20090;SDS011;10205;49.678;6.560;2023-01-16T01:13:35;2.40;;;1.30;;
20090;SDS011;10205;49.678;6.560;2023-01-16T01:16:03;2.17;;;1.20;;
20090;SDS011;10205;49.678;6.560;2023-01-16T01:18:33;2.63;;;1.13;;
20090;SDS011;10205;49.678;6.560;2023-01-16T01:21:03;3.73;;;1.70;;
20090;SDS011;10205;49.678;6.560;2023-01-16T01:23:31;2.60;;;1.50;;
20090;SDS011;10205;49.678;6.560;2023-01-16T01:26:04;1.30;;;1.20;;
20090;SDS011;10205;49.678;6.560;2023-01-16T01:28:32;2.10;;;1.43;;
20090;SDS011;10205;49.678;6.560;2023-01-16T01:31:01;2.20;;;1.40;;
20090;SDS011;10205;49.678;6.560;2023-01-16T01:33:29;2.37;;;1.40;;
20090;SDS011;10205;49.678;6.560;2023-01-16T01:35:59;4.23;;;1.37;;
20090;SDS011;10205;49.678;6.560;2023-01-16T01:38:26;1.97;;;1.43;;
20090;SDS011;10205;49.678;6.560;2023-01-16T01:40:53;1.57;;;1.30;;
20090;SDS011;10205;49.678;6.560;2023-01-16T01:43:21;3.43;;;1.40;;
20090;SDS011;10205;49.678;6.560;2023-01-16T01:46:05;2.03;;;1.40;;
20090;SDS011;10205;49.678;6.560;2023-01-16T01:48:40;3.87;;;1.20;;
20090;SDS011;10205;49.678;6.560;2023-01-16T01:51:10;3.47;;;1.47;;
20090;SDS011;10205;49.678;6.560;2023-01-16T01:53:44;3.20;;;1.37;;
20090;SDS011;10205;49.678;6.560;2023-01-16T01:56:18;1.80;;;1.50;;
20090;SDS011;10205;49.678;6.560;2023-01-16T01:58:52;2.23;;;1.30;;
20090;SDS011;10205;49.678;6.560;2023-01-16T02:01:28;1.20;;;1.10;;
20090;SDS011;10205;49.678;6.560;2023-01-16T02:03:58;2.00;;;1.23;;
20090;SDS011;10205;49.678;6.560;2023-01-16T02:06:44;1.40;;;1.27;;
20090;SDS011;10205;49.678;6.560;2023-01-16T02:09:15;1.23;;;1.10;;
20090;SDS011;10205;49.678;6.560;2023-01-16T02:11:45;1.67;;;1.30;;
20090;SDS011;10205;49.678;6.560;2023-01-16T02:14:19;1.53;;;1.43;;
20090;SDS011;10205;49.678;6.560;2023-01-16T02:16:50;2.47;;;1.50;;
20090;SDS011;10205;49.678;6.560;2023-01-16T02:19:47;2.33;;;1.10;;
20090;SDS011;10205;49.678;6.560;2023-01-16T02:22:31;1.10;;;1.00;;
20090;SDS011;10205;49.678;6.560;2023-01-16T02:28:50;2.17;;;1.17;;
20090;SDS011;10205;49.678;6.560;2023-01-16T02:31:52;1.27;;;1.20;;
20090;SDS011;10205;49.678;6.560;2023-01-16T02:34:36;2.73;;;1.30;;
20090;SDS011;10205;49.678;6.560;2023-01-16T02:37:34;3.73;;;1.63;;
20090;SDS011;10205;49.678;6.560;2023-01-16T02:40:15;1.80;;;1.27;;
20090;SDS011;10205;49.678;6.560;2023-01-16T02:42:59;1.20;;;1.10;;
20090;SDS011;10205;49.678;6.560;2023-01-16T02:45:43;3.97;;;1.40;;
20090;SDS011;10205;49.678;6.560;2023-01-16T02:48:23;3.00;;;1.53;;
20090;SDS011;10205;49.678;6.560;2023-01-16T02:51:02;3.23;;;1.20;;
20090;SDS011;10205;49.678;6.560;2023-01-16T02:53:38;5.27;;;1.80;;
20090;SDS011;10205;49.678;6.560;2023-01-16T02:56:14;2.33;;;1.30;;
20090;SDS011;10205;49.678;6.560;2023-01-16T02:58:48;2.27;;;1.40;;
20090;SDS011;10205;49.678;6.560;2023-01-16T03:01:18;3.10;;;1.53;;
20090;SDS011;10205;49.678;6.560;2023-01-16T03:03:49;1.83;;;1.40;;
20090;SDS011;10205;49.678;6.560;2023-01-16T03:06:31;3.77;;;1.70;;
20090;SDS011;10205;49.678;6.560;2023-01-16T03:09:22;2.13;;;1.47;;
20090;SDS011;10205;49.678;6.560;2023-01-16T03:12:06;2.03;;;1.50;;
20090;SDS011;10205;49.678;6.560;2023-01-16T03:14:51;2.37;;;1.50;;
20090;SDS011;10205;49.678;6.560;2023-01-16T03:17:35;3.50;;;1.57;;
20090;SDS011;10205;49.678;6.560;2023-01-16T03:20:15;3.67;;;1.50;;
20090;SDS011;10205;49.678;6.560;2023-01-16T03:22:55;3.87;;;1.47;;
20090;SDS011;10205;49.678;6.560;2023-01-16T03:25:34;2.30;;;1.53;;
20090;SDS011;10205;49.678;6.560;2023-01-16T03:28:11;1.57;;;1.30;;
20090;SDS011;10205;49.678;6.560;2023-01-16T03:30:54;2.80;;;1.60;;
20090;SDS011;10205;49.678;6.560;2023-01-16T03:33:31;4.30;;;1.70;;
20090;SDS011;10205;49.678;6.560;2023-01-16T03:36:10;4.30;;;1.50;;
20090;SDS011;10205;49.678;6.560;2023-01-16T03:38:41;3.10;;;1.47;;
20090;SDS011;10205;49.678;6.560;2023-01-16T03:41:12;3.97;;;1.80;;
20090;SDS011;10205;49.678;6.560;2023-01-16T03:43:47;4.67;;;1.60;;
20090;SDS011;10205;49.678;6.560;2023-01-16T03:46:22;2.57;;;1.50;;
20090;SDS011;10205;49.678;6.560;2023-01-16T03:48:55;3.17;;;1.60;;
20090;SDS011;10205;49.678;6.560;2023-01-16T03:51:28;3.47;;;1.60;;
20090;SDS011;10205;49.678;6.560;2023-01-16T03:54:01;1.73;;;1.50;;
20090;SDS011;10205;49.678;6.560;2023-01-16T03:56:37;3.97;;;1.73;;
20090;SDS011;10205;49.678;6.560;2023-01-16T03:59:12;2.20;;;1.57;;
20090;SDS011;10205;49.678;6.560;2023-01-16T04:01:42;1.70;;;1.57;;
20090;SDS011;10205;49.678;6.560;2023-01-16T04:04:20;2.70;;;1.77;;
20090;SDS011;10205;49.678;6.560;2023-01-16T04:06:57;2.60;;;1.53;;
20090;SDS011;10205;49.678;6.560;2023-01-16T04:09:44;2.40;;;1.60;;
20090;SDS011;10205;49.678;6.560;2023-01-16T04:12:17;2.50;;;2.03;;
20090;SDS011;10205;49.678;6.560;2023-01-16T04:14:50;2.33;;;1.70;;
20090;SDS011;10205;49.678;6.560;2023-01-16T04:17:22;2.90;;;1.57;;
20090;SDS011;10205;49.678;6.560;2023-01-16T04:19:51;1.63;;;1.50;;
20090;SDS011;10205;49.678;6.560;2023-01-16T04:22:20;1.80;;;1.60;;
20090;SDS011;10205;49.678;6.560;2023-01-16T04:24:51;3.07;;;1.60;;
20090;SDS011;10205;49.678;6.560;2023-01-16T04:27:22;4.00;;;1.67;;
20090;SDS011;10205;49.678;6.560;2023-01-16T04:29:50;2.10;;;1.67;;
20090;SDS011;10205;49.678;6.560;2023-01-16T04:32:18;2.07;;;1.83;;
20090;SDS011;10205;49.678;6.560;2023-01-16T04:34:45;1.97;;;1.60;;
20090;SDS011;10205;49.678;6.560;2023-01-16T04:37:13;4.37;;;2.07;;
20090;SDS011;10205;49.678;6.560;2023-01-16T04:39:44;2.70;;;1.60;;
20090;SDS011;10205;49.678;6.560;2023-01-16T04:42:12;2.20;;;1.80;;
20090;SDS011;10205;49.678;6.560;2023-01-16T04:44:39;3.03;;;1.60;;
20090;SDS011;10205;49.678;6.560;2023-01-16T04:47:07;3.40;;;2.00;;
20090;SDS011;10205;49.678;6.560;2023-01-16T04:49:37;3.77;;;1.70;;
20090;SDS011;10205;49.678;6.560;2023-01-16T04:52:04;2.07;;;1.40;;
20090;SDS011;10205;49.678;6.560;2023-01-16T04:54:31;2.77;;;1.80;;
20090;SDS011;10205;49.678;6.560;2023-01-16T04:57:00;1.73;;;1.50;;
20090;SDS011;10205;49.678;6.560;2023-01-16T04:59:27;2.77;;;1.73;;
20090;SDS011;10205;49.678;6.560;2023-01-16T05:01:58;5.00;;;2.43;;
20090;SDS011;10205;49.678;6.560;2023-01-16T05:04:25;2.60;;;1.47;;
20090;SDS011;10205;49.678;6.560;2023-01-16T05:06:52;3.27;;;1.73;;
20090;SDS011;10205;49.678;6.560;2023-01-16T05:09:19;4.23;;;1.77;;
20090;SDS011;10205;49.678;6.560;2023-01-16T05:11:47;2.03;;;1.50;;
20090;SDS011;10205;49.678;6.560;2023-01-16T05:14:16;4.20;;;1.73;;
20090;SDS011;10205;49.678;6.560;2023-01-16T05:16:43;1.90;;;1.50;;
20090;SDS011;10205;49.678;6.560;2023-01-16T05:19:10;3.03;;;1.43;;
20090;SDS011;10205;49.678;6.560;2023-01-16T05:21:37;4.27;;;1.70;;
20090;SDS011;10205;49.678;6.560;2023-01-16T05:24:05;3.27;;;1.40;;
20090;SDS011;10205;49.678;6.560;2023-01-16T05:26:35;2.47;;;1.57;;
20090;SDS011;10205;49.678;6.560;2023-01-16T05:29:02;3.87;;;1.40;;
20090;SDS011;10205;49.678;6.560;2023-01-16T05:31:31;3.20;;;1.90;;
20090;SDS011;10205;49.678;6.560;2023-01-16T05:33:58;2.53;;;1.40;;
20090;SDS011;10205;49.678;6.560;2023-01-16T05:36:25;3.00;;;1.67;;
20090;SDS011;10205;49.678;6.560;2023-01-16T05:38:53;3.00;;;1.77;;
20090;SDS011;10205;49.678;6.560;2023-01-16T05:41:20;1.87;;;1.50;;
20090;SDS011;10205;49.678;6.560;2023-01-16T05:43:48;2.60;;;1.30;;
20090;SDS011;10205;49.678;6.560;2023-01-16T05:46:15;2.43;;;1.20;;
20090;SDS011;10205;49.678;6.560;2023-01-16T05:48:44;2.43;;;1.20;;
20090;SDS011;10205;49.678;6.560;2023-01-16T05:51:11;2.93;;;1.30;;
20090;SDS011;10205;49.678;6.560;2023-01-16T05:53:38;2.70;;;1.40;;
20090;SDS011;10205;49.678;6.560;2023-01-16T05:56:06;3.20;;;1.43;;
20090;SDS011;10205;49.678;6.560;2023-01-16T05:58:36;3.33;;;1.40;;
20090;SDS011;10205;49.678;6.560;2023-01-16T06:01:03;4.90;;;1.40;;
20090;SDS011;10205;49.678;6.560;2023-01-16T06:03:31;2.00;;;1.60;;
20090;SDS011;10205;49.678;6.560;2023-01-16T06:05:59;2.37;;;1.60;;
20090;SDS011;10205;49.678;6.560;2023-01-16T06:08:27;2.90;;;1.60;;
20090;SDS011;10205;49.678;6.560;2023-01-16T06:10:57;2.03;;;1.50;;
20090;SDS011;10205;49.678;6.560;2023-01-16T06:13:24;2.57;;;1.30;;
20090;SDS011;10205;49.678;6.560;2023-01-16T06:15:51;3.27;;;1.23;;
20090;SDS011;10205;49.678;6.560;2023-01-16T06:18:18;2.00;;;1.20;;
20090;SDS011;10205;49.678;6.560;2023-01-16T06:20:45;1.27;;;1.17;;
20090;SDS011;10205;49.678;6.560;2023-01-16T06:23:14;2.50;;;1.50;;
20090;SDS011;10205;49.678;6.560;2023-01-16T06:25:41;2.23;;;1.50;;
20090;SDS011;10205;49.678;6.560;2023-01-16T06:28:08;1.30;;;1.20;;
20090;SDS011;10205;49.678;6.560;2023-01-16T06:30:35;2.67;;;1.37;;
20090;SDS011;10205;49.678;6.560;2023-01-16T06:33:02;3.60;;;1.33;;
20090;SDS011;10205;49.678;6.560;2023-01-16T06:35:29;2.77;;;1.60;;
20090;SDS011;10205;49.678;6.560;2023-01-16T06:37:57;1.40;;;1.30;;
20090;SDS011;10205;49.678;6.560;2023-01-16T06:40:25;3.30;;;1.40;;
20090;SDS011;10205;49.678;6.560;2023-01-16T06:42:52;2.10;;;1.67;;
20090;SDS011;10205;49.678;6.560;2023-01-16T06:45:19;5.13;;;1.67;;
20090;SDS011;10205;49.678;6.560;2023-01-16T06:47:50;1.60;;;1.37;;
20090;SDS011;10205;49.678;6.560;2023-01-16T06:50:17;2.10;;;1.60;;
20090;SDS011;10205;49.678;6.560;2023-01-16T06:52:45;3.00;;;1.53;;
20090;SDS011;10205;49.678;6.560;2023-01-16T06:55:13;2.13;;;1.43;;
20090;SDS011;10205;49.678;6.560;2023-01-16T06:57:42;3.13;;;1.80;;
20090;SDS011;10205;49.678;6.560;2023-01-16T07:00:10;2.83;;;1.40;;
20090;SDS011;10205;49.678;6.560;2023-01-16T07:02:39;1.47;;;1.20;;
20090;SDS011;10205;49.678;6.560;2023-01-16T07:05:06;2.57;;;1.50;;
20090;SDS011;10205;49.678;6.560;2023-01-16T07:07:35;2.97;;;1.50;;
20090;SDS011;10205;49.678;6.560;2023-01-16T07:10:02;2.93;;;1.73;;
20090;SDS011;10205;49.678;6.560;2023-01-16T07:12:30;1.83;;;1.50;;
20090;SDS011;10205;49.678;6.560;2023-01-16T07:14:59;2.23;;;1.30;;
20090;SDS011;10205;49.678;6.560;2023-01-16T07:17:44;2.27;;;1.50;;
20090;SDS011;10205;49.678;6.560;2023-01-16T07:20:28;3.20;;;1.50;;
20090;SDS011;10205;49.678;6.560;2023-01-16T07:23:14;2.40;;;1.40;;
20090;SDS011;10205;49.678;6.560;2023-01-16T07:25:46;2.10;;;1.40;;
20090;SDS011;10205;49.678;6.560;2023-01-16T07:28:15;1.03;;;1.03;;
20090;SDS011;10205;49.678;6.560;2023-01-16T07:30:45;1.60;;;1.10;;
20090;SDS011;10205;49.678;6.560;2023-01-16T07:33:14;1.53;;;1.43;;
20090;SDS011;10205;49.678;6.560;2023-01-16T07:35:42;1.30;;;1.20;;
20090;SDS011;10205;49.678;6.560;2023-01-16T07:38:10;2.73;;;1.33;;
20090;SDS011;10205;49.678;6.560;2023-01-16T07:40:37;1.30;;;1.20;;
20090;SDS011;10205;49.678;6.560;2023-01-16T07:43:05;1.53;;;1.20;;
20090;SDS011;10205;49.678;6.560;2023-01-16T07:45:32;1.27;;;1.17;;
20090;SDS011;10205;49.678;6.560;2023-01-16T07:48:01;2.97;;;1.07;;
20090;SDS011;10205;49.678;6.560;2023-01-16T07:50:29;1.33;;;1.23;;
20090;SDS011;10205;49.678;6.560;2023-01-16T07:52:56;1.40;;;1.10;;
20090;SDS011;10205;49.678;6.560;2023-01-16T07:55:24;2.37;;;1.37;;
20090;SDS011;10205;49.678;6.560;2023-01-16T07:57:52;1.83;;;1.30;;
20090;SDS011;10205;49.678;6.560;2023-01-16T08:00:19;2.03;;;1.30;;
20090;SDS011;10205;49.678;6.560;2023-01-16T08:02:47;4.87;;;1.43;;
20090;SDS011;10205;49.678;6.560;2023-01-16T08:05:17;1.37;;;1.20;;
20090;SDS011;10205;49.678;6.560;2023-01-16T08:07:44;1.70;;;1.10;;
20090;SDS011;10205;49.678;6.560;2023-01-16T08:10:11;2.67;;;1.37;;
20090;SDS011;10205;49.678;6.560;2023-01-16T08:12:39;2.30;;;1.20;;
20090;SDS011;10205;49.678;6.560;2023-01-16T08:15:06;1.60;;;1.30;;
20090;SDS011;10205;49.678;6.560;2023-01-16T08:17:37;2.10;;;1.30;;
20090;SDS011;10205;49.678;6.560;2023-01-16T08:20:05;1.37;;;1.20;;
20090;SDS011;10205;49.678;6.560;2023-01-16T08:22:36;2.23;;;1.20;;
20090;SDS011;10205;49.678;6.560;2023-01-16T08:25:09;3.00;;;1.40;;
20090;SDS011;10205;49.678;6.560;2023-01-16T08:27:37;1.90;;;1.33;;
20090;SDS011;10205;49.678;6.560;2023-01-16T08:30:05;1.20;;;1.10;;
20090;SDS011;10205;49.678;6.560;2023-01-16T08:32:34;1.40;;;1.30;;
20090;SDS011;10205;49.678;6.560;2023-01-16T08:35:03;1.40;;;1.30;;
20090;SDS011;10205;49.678;6.560;2023-01-16T08:37:32;3.37;;;1.20;;
20090;SDS011;10205;49.678;6.560;2023-01-16T08:40:01;1.37;;;1.27;;
20090;SDS011;10205;49.678;6.560;2023-01-16T08:42:29;1.70;;;1.20;;
20090;SDS011;10205;49.678;6.560;2023-01-16T08:45:14;1.43;;;1.30;;
20090;SDS011;10205;49.678;6.560;2023-01-16T08:47:59;2.10;;;1.13;;
20090;SDS011;10205;49.678;6.560;2023-01-16T08:50:45;1.10;;;1.10;;
20090;SDS011;10205;49.678;6.560;2023-01-16T08:53:30;1.90;;;1.57;;
20090;SDS011;10205;49.678;6.560;2023-01-16T08:55:59;2.00;;;1.43;;
20090;SDS011;10205;49.678;6.560;2023-01-16T08:58:26;2.60;;;1.40;;
20090;SDS011;10205;49.678;6.560;2023-01-16T09:00:57;1.60;;;1.50;;
20090;SDS011;10205;49.678;6.560;2023-01-16T09:03:24;1.37;;;1.27;;
20090;SDS011;10205;49.678;6.560;2023-01-16T09:05:51;1.30;;;1.20;;
20090;SDS011;10205;49.678;6.560;2023-01-16T09:08:18;1.50;;;1.30;;
20090;SDS011;10205;49.678;6.560;2023-01-16T09:10:45;1.40;;;1.30;;
20090;SDS011;10205;49.678;6.560;2023-01-16T09:13:28;1.20;;;1.20;;
20090;SDS011;10205;49.678;6.560;2023-01-16T09:16:12;2.20;;;1.10;;
20090;SDS011;10205;49.678;6.560;2023-01-16T09:18:40;1.37;;;1.27;;
20090;SDS011;10205;49.678;6.560;2023-01-16T09:21:07;2.07;;;1.47;;
20090;SDS011;10205;49.678;6.560;2023-01-16T09:23:34;1.40;;;1.30;;
20090;SDS011;10205;49.678;6.560;2023-01-16T09:26:02;1.33;;;1.10;;
20090;SDS011;10205;49.678;6.560;2023-01-16T09:28:32;1.30;;;1.20;;
20090;SDS011;10205;49.678;6.560;2023-01-16T09:30:59;1.30;;;1.20;;
20090;SDS011;10205;49.678;6.560;2023-01-16T09:33:26;1.10;;;1.10;;
20090;SDS011;10205;49.678;6.560;2023-01-16T09:35:54;3.70;;;1.77;;
20090;SDS011;10205;49.678;6.560;2023-01-16T09:38:21;2.03;;;1.30;;
20090;SDS011;10205;49.678;6.560;2023-01-16T09:40:51;1.40;;;1.30;;
20090;SDS011;10205;49.678;6.560;2023-01-16T09:43:27;1.30;;;1.20;;
20090;SDS011;10205;49.678;6.560;2023-01-16T09:46:01;1.30;;;1.23;;
20090;SDS011;10205;49.678;6.560;2023-01-16T09:48:36;1.37;;;1.27;;
20090;SDS011;10205;49.678;6.560;2023-01-16T09:51:15;1.27;;;1.17;;
20090;SDS011;10205;49.678;6.560;2023-01-16T09:53:49;1.30;;;1.30;;
20090;SDS011;10205;49.678;6.560;2023-01-16T09:56:41;1.30;;;1.20;;
20090;SDS011;10205;49.678;6.560;2023-01-16T09:59:33;1.40;;;1.30;;
20090;SDS011;10205;49.678;6.560;2023-01-16T10:02:10;1.23;;;1.10;;
20090;SDS011;10205;49.678;6.560;2023-01-16T10:04:46;1.37;;;1.30;;
20090;SDS011;10205;49.678;6.560;2023-01-16T10:07:23;2.93;;;1.20;;
20090;SDS011;10205;49.678;6.560;2023-01-16T10:16:34;1.40;;;1.20;;
20090;SDS011;10205;49.678;6.560;2023-01-16T10:19:23;1.53;;;1.20;;
20090;SDS011;10205;49.678;6.560;2023-01-16T10:22:11;1.47;;;1.00;;
20090;SDS011;10205;49.678;6.560;2023-01-16T10:25:00;2.37;;;1.30;;
20090;SDS011;10205;49.678;6.560;2023-01-16T10:27:44;1.70;;;1.20;;
20090;SDS011;10205;49.678;6.560;2023-01-16T10:30:29;1.90;;;1.40;;
20090;SDS011;10205;49.678;6.560;2023-01-16T10:33:05;1.50;;;1.40;;
20090;SDS011;10205;49.678;6.560;2023-01-16T10:35:40;1.17;;;1.10;;
20090;SDS011;10205;49.678;6.560;2023-01-16T10:38:18;1.37;;;1.27;;
20090;SDS011;10205;49.678;6.560;2023-01-16T10:41:04;1.20;;;1.10;;
20090;SDS011;10205;49.678;6.560;2023-01-16T10:43:58;1.37;;;1.10;;
20090;SDS011;10205;49.678;6.560;2023-01-16T10:46:44;1.20;;;1.10;;
20090;SDS011;10205;49.678;6.560;2023-01-16T10:49:31;1.17;;;1.10;;
20090;SDS011;10205;49.678;6.560;2023-01-16T10:51:59;1.00;;;1.00;;
20090;SDS011;10205;49.678;6.560;2023-01-16T10:54:31;1.70;;;1.20;;
20090;SDS011;10205;49.678;6.560;2023-01-16T10:56:58;1.10;;;1.10;;
20090;SDS011;10205;49.678;6.560;2023-01-16T10:59:28;1.10;;;1.10;;
20090;SDS011;10205;49.678;6.560;2023-01-16T11:02:00;1.10;;;1.10;;
20090;SDS011;10205;49.678;6.560;2023-01-16T11:04:46;1.30;;;1.20;;
20090;SDS011;10205;49.678;6.560;2023-01-16T11:07:14;1.57;;;1.10;;
20090;SDS011;10205;49.678;6.560;2023-01-16T11:09:44;1.40;;;1.30;;
20090;SDS011;10205;49.678;6.560;2023-01-16T11:12:21;1.30;;;1.20;;
20090;SDS011;10205;49.678;6.560;2023-01-16T11:15:14;1.10;;;1.10;;
20090;SDS011;10205;49.678;6.560;2023-01-16T11:18:18;1.10;;;1.00;;
20090;SDS011;10205;49.678;6.560;2023-01-16T11:20:56;1.00;;;1.00;;
20090;SDS011;10205;49.678;6.560;2023-01-16T11:23:35;1.23;;;1.13;;
20090;SDS011;10205;49.678;6.560;2023-01-16T11:26:04;1.23;;;1.20;;
20090;SDS011;10205;49.678;6.560;2023-01-16T11:28:34;1.40;;;1.20;;
20090;SDS011;10205;49.678;6.560;2023-01-16T11:31:11;1.23;;;1.03;;
20090;SDS011;10205;49.678;6.560;2023-01-16T11:33:49;1.53;;;1.30;;
20090;SDS011;10205;49.678;6.560;2023-01-16T11:36:23;1.13;;;1.03;;
20090;SDS011;10205;49.678;6.560;2023-01-16T11:38:52;1.13;;;1.10;;
20090;SDS011;10205;49.678;6.560;2023-01-16T11:41:20;1.30;;;1.20;;
20090;SDS011;10205;49.678;6.560;2023-01-16T11:44:05;1.23;;;1.17;;
20090;SDS011;10205;49.678;6.560;2023-01-16T11:46:59;1.00;;;1.00;;
20090;SDS011;10205;49.678;6.560;2023-01-16T11:49:28;2.00;;;1.20;;
20090;SDS011;10205;49.678;6.560;2023-01-16T11:52:03;1.20;;;1.10;;
20090;SDS011;10205;49.678;6.560;2023-01-16T11:54:31;1.07;;;1.07;;
20090;SDS011;10205;49.678;6.560;2023-01-16T11:57:16;1.00;;;1.00;;
20090;SDS011;10205;49.678;6.560;2023-01-16T12:03:18;1.10;;;1.00;;
20090;SDS011;10205;49.678;6.560;2023-01-16T12:06:11;1.40;;;1.00;;
20090;SDS011;10205;49.678;6.560;2023-01-16T12:12:01;1.83;;;1.30;;
20090;SDS011;10205;49.678;6.560;2023-01-16T12:15:02;1.20;;;1.10;;
20090;SDS011;10205;49.678;6.560;2023-01-16T12:17:41;1.07;;;1.07;;
20090;SDS011;10205;49.678;6.560;2023-01-16T12:20:28;1.40;;;1.30;;
20090;SDS011;10205;49.678;6.560;2023-01-16T12:23:16;1.07;;;1.07;;
20090;SDS011;10205;49.678;6.560;2023-01-16T12:26:15;1.60;;;1.50;;
20090;SDS011;10205;49.678;6.560;2023-01-16T12:28:51;1.40;;;1.10;;
20090;SDS011;10205;49.678;6.560;2023-01-16T12:31:46;1.17;;;1.07;;
20090;SDS011;10205;49.678;6.560;2023-01-16T12:38:01;1.20;;;1.10;;
20090;SDS011;10205;49.678;6.560;2023-01-16T12:40:42;1.10;;;1.00;;
20090;SDS011;10205;49.678;6.560;2023-01-16T12:46:56;2.40;;;0.80;;
20090;SDS011;10205;49.678;6.560;2023-01-16T12:49:52;1.20;;;1.10;;
20090;SDS011;10205;49.678;6.560;2023-01-16T12:52:45;1.13;;;1.00;;
20090;SDS011;10205;49.678;6.560;2023-01-16T12:55:37;0.90;;;0.90;;
20090;SDS011;10205;49.678;6.560;2023-01-16T12:58:12;1.40;;;1.30;;
20090;SDS011;10205;49.678;6.560;2023-01-16T13:00:44;1.33;;;1.10;;
20090;SDS011;10205;49.678;6.560;2023-01-16T13:03:22;2.00;;;1.10;;
20090;SDS011;10205;49.678;6.560;2023-01-16T13:05:59;1.13;;;1.00;;
20090;SDS011;10205;49.678;6.560;2023-01-16T13:08:31;0.90;;;0.90;;
20090;SDS011;10205;49.678;6.560;2023-01-16T13:11:04;1.40;;;0.90;;
20090;SDS011;10205;49.678;6.560;2023-01-16T13:13:57;1.63;;;1.10;;
20090;SDS011;10205;49.678;6.560;2023-01-16T13:16:31;0.97;;;0.90;;
20090;SDS011;10205;49.678;6.560;2023-01-16T13:19:05;0.90;;;0.90;;
20090;SDS011;10205;49.678;6.560;2023-01-16T13:21:45;1.20;;;1.10;;
20090;SDS011;10205;49.678;6.560;2023-01-16T13:24:26;1.10;;;1.10;;
20090;SDS011;10205;49.678;6.560;2023-01-16T13:27:00;0.90;;;0.90;;
20090;SDS011;10205;49.678;6.560;2023-01-16T13:29:33;1.20;;;1.10;;
20090;SDS011;10205;49.678;6.560;2023-01-16T13:32:17;1.30;;;1.20;;
20090;SDS011;10205;49.678;6.560;2023-01-16T13:34:54;1.57;;;1.13;;
20090;SDS011;10205;49.678;6.560;2023-01-16T13:37:41;1.70;;;1.23;;
20090;SDS011;10205;49.678;6.560;2023-01-16T13:40:37;0.80;;;0.80;;
20090;SDS011;10205;49.678;6.560;2023-01-16T13:43:23;1.00;;;1.00;;
20090;SDS011;10205;49.678;6.560;2023-01-16T13:46:15;0.80;;;0.80;;
20090;SDS011;10205;49.678;6.560;2023-01-16T13:48:50;1.40;;;1.20;;
20090;SDS011;10205;49.678;6.560;2023-01-16T13:51:20;1.10;;;1.00;;
20090;SDS011;10205;49.678;6.560;2023-01-16T13:53:50;0.90;;;0.90;;
20090;SDS011;10205;49.678;6.560;2023-01-16T13:56:24;1.00;;;0.90;;
20090;SDS011;10205;49.678;6.560;2023-01-16T13:58:55;0.80;;;0.80;;
20090;SDS011;10205;49.678;6.560;2023-01-16T14:01:32;0.90;;;0.90;;
20090;SDS011;10205;49.678;6.560;2023-01-16T14:04:30;1.13;;;1.10;;
20090;SDS011;10205;49.678;6.560;2023-01-16T14:06:59;0.90;;;0.90;;
20090;SDS011;10205;49.678;6.560;2023-01-16T14:10:03;0.87;;;0.87;;
20090;SDS011;10205;49.678;6.560;2023-01-16T14:12:59;1.10;;;1.00;;
20090;SDS011;10205;49.678;6.560;2023-01-16T14:18:36;0.90;;;0.90;;
20090;SDS011;10205;49.678;6.560;2023-01-16T14:21:12;0.90;;;0.90;;
20090;SDS011;10205;49.678;6.560;2023-01-16T14:23:50;0.90;;;0.90;;
20090;SDS011;10205;49.678;6.560;2023-01-16T14:26:30;1.00;;;1.00;;
20090;SDS011;10205;49.678;6.560;2023-01-16T14:29:14;1.17;;;0.90;;
20090;SDS011;10205;49.678;6.560;2023-01-16T14:31:56;1.10;;;1.10;;
20090;SDS011;10205;49.678;6.560;2023-01-16T14:34:28;0.80;;;0.80;;
20090;SDS011;10205;49.678;6.560;2023-01-16T14:37:10;0.80;;;0.80;;
20090;SDS011;10205;49.678;6.560;2023-01-16T14:39:47;1.10;;;1.00;;
20090;SDS011;10205;49.678;6.560;2023-01-16T14:42:17;0.90;;;0.90;;
20090;SDS011;10205;49.678;6.560;2023-01-16T14:51:27;0.83;;;0.83;;
20090;SDS011;10205;49.678;6.560;2023-01-16T14:54:17;0.90;;;0.90;;
20090;SDS011;10205;49.678;6.560;2023-01-16T14:57:07;0.80;;;0.80;;
20090;SDS011;10205;49.678;6.560;2023-01-16T14:59:40;0.80;;;0.80;;
20090;SDS011;10205;49.678;6.560;2023-01-16T15:02:21;0.80;;;0.80;;
20090;SDS011;10205;49.678;6.560;2023-01-16T15:04:59;0.90;;;0.90;;
20090;SDS011;10205;49.678;6.560;2023-01-16T15:07:36;0.90;;;0.90;;
20090;SDS011;10205;49.678;6.560;2023-01-16T15:10:14;1.00;;;1.00;;
20090;SDS011;10205;49.678;6.560;2023-01-16T15:12:46;0.97;;;0.83;;
20090;SDS011;10205;49.678;6.560;2023-01-16T15:15:21;1.00;;;1.00;;
20090;SDS011;10205;49.678;6.560;2023-01-16T15:17:51;0.90;;;0.90;;
20090;SDS011;10205;49.678;6.560;2023-01-16T15:20:39;1.07;;;1.07;;
20090;SDS011;10205;49.678;6.560;2023-01-16T15:23:27;1.17;;;1.07;;
20090;SDS011;10205;49.678;6.560;2023-01-16T15:26:08;0.80;;;0.80;;
20090;SDS011;10205;49.678;6.560;2023-01-16T15:29:05;0.87;;;0.87;;
20090;SDS011;10205;49.678;6.560;2023-01-16T15:32:01;0.90;;;0.90;;
20090;SDS011;10205;49.678;6.560;2023-01-16T15:34:41;0.90;;;0.90;;
20090;SDS011;10205;49.678;6.560;2023-01-16T15:37:14;0.90;;;0.90;;
20090;SDS011;10205;49.678;6.560;2023-01-16T15:39:48;1.00;;;1.00;;
20090;SDS011;10205;49.678;6.560;2023-01-16T15:42:19;0.80;;;0.80;;
20090;SDS011;10205;49.678;6.560;2023-01-16T15:45:17;0.90;;;0.90;;
20090;SDS011;10205;49.678;6.560;2023-01-16T15:51:08;0.90;;;0.90;;
20090;SDS011;10205;49.678;6.560;2023-01-16T15:53:40;0.90;;;0.90;;
20090;SDS011;10205;49.678;6.560;2023-01-16T15:56:16;0.90;;;0.90;;
20090;SDS011;10205;49.678;6.560;2023-01-16T15:58:48;0.90;;;0.90;;
20090;SDS011;10205;49.678;6.560;2023-01-16T16:01:23;0.80;;;0.80;;
20090;SDS011;10205;49.678;6.560;2023-01-16T16:03:53;0.90;;;0.90;;
20090;SDS011;10205;49.678;6.560;2023-01-16T16:06:22;0.90;;;0.90;;
20090;SDS011;10205;49.678;6.560;2023-01-16T16:08:52;0.80;;;0.80;;